sensor_id;sensor_type;location;lat;lon;timestamp;P1;durP1;ratioP1;P2;durP2;ratioP2
13374;SDS011;6756;51.354;15.754;2023-12-14T00:00:30;50.87;;;25.87;;
13374;SDS011;6756;51.354;15.754;2023-12-14T00:04:31;44.97;;;25.13;;
13374;SDS011;6756;51.354;15.754;2023-12-14T00:08:32;56.97;;;30.07;;
13374;SDS011;6756;51.354;15.754;2023-12-14T00:12:32;57.87;;;32.10;;
13374;SDS011;6756;51.354;15.754;2023-12-14T00:16:33;52.30;;;29.97;;
13374;SDS011;6756;51.354;15.754;2023-12-14T00:20:34;47.97;;;26.60;;
13374;SDS011;6756;51.354;15.754;2023-12-14T00:24:34;53.40;;;31.33;;
13374;SDS011;6756;51.354;15.754;2023-12-14T00:28:35;55.93;;;33.20;;
13374;SDS011;6756;51.354;15.754;2023-12-14T00:32:36;56.43;;;34.27;;
13374;SDS011;6756;51.354;15.754;2023-12-14T00:36:36;64.13;;;34.03;;
13374;SDS011;6756;51.354;15.754;2023-12-14T00:40:37;62.13;;;34.60;;
13374;SDS011;6756;51.354;15.754;2023-12-14T00:44:38;59.47;;;36.63;;
13374;SDS011;6756;51.354;15.754;2023-12-14T00:48:39;57.50;;;32.93;;
13374;SDS011;6756;51.354;15.754;2023-12-14T00:52:40;55.93;;;32.63;;
13374;SDS011;6756;51.354;15.754;2023-12-14T00:56:41;51.00;;;31.07;;
13374;SDS011;6756;51.354;15.754;2023-12-14T01:00:42;73.00;;;34.13;;
13374;SDS011;6756;51.354;15.754;2023-12-14T01:04:42;55.17;;;28.83;;
13374;SDS011;6756;51.354;15.754;2023-12-14T01:08:43;58.30;;;30.73;;
13374;SDS011;6756;51.354;15.754;2023-12-14T01:12:44;55.27;;;27.57;;
13374;SDS011;6756;51.354;15.754;2023-12-14T01:16:44;42.57;;;23.93;;
13374;SDS011;6756;51.354;15.754;2023-12-14T01:20:45;61.53;;;28.87;;
13374;SDS011;6756;51.354;15.754;2023-12-14T01:24:46;54.93;;;27.87;;
13374;SDS011;6756;51.354;15.754;2023-12-14T01:28:47;52.00;;;25.83;;
13374;SDS011;6756;51.354;15.754;2023-12-14T01:32:48;51.87;;;26.00;;
13374;SDS011;6756;51.354;15.754;2023-12-14T01:36:48;57.73;;;27.83;;
13374;SDS011;6756;51.354;15.754;2023-12-14T01:40:49;57.97;;;28.60;;
13374;SDS011;6756;51.354;15.754;2023-12-14T01:44:50;58.90;;;29.63;;
13374;SDS011;6756;51.354;15.754;2023-12-14T01:48:51;57.47;;;27.63;;
13374;SDS011;6756;51.354;15.754;2023-12-14T01:52:53;62.57;;;30.40;;
13374;SDS011;6756;51.354;15.754;2023-12-14T01:56:53;58.20;;;27.57;;
13374;SDS011;6756;51.354;15.754;2023-12-14T02:04:55;61.90;;;31.17;;
13374;SDS011;6756;51.354;15.754;2023-12-14T02:08:56;66.40;;;33.37;;
13374;SDS011;6756;51.354;15.754;2023-12-14T02:12:56;70.33;;;30.27;;
13374;SDS011;6756;51.354;15.754;2023-12-14T02:16:57;85.53;;;29.33;;
13374;SDS011;6756;51.354;15.754;2023-12-14T02:20:58;82.30;;;29.27;;
13374;SDS011;6756;51.354;15.754;2023-12-14T02:24:59;82.20;;;29.57;;
13374;SDS011;6756;51.354;15.754;2023-12-14T02:28:59;57.80;;;25.10;;
13374;SDS011;6756;51.354;15.754;2023-12-14T02:33:00;95.50;;;40.83;;
13374;SDS011;6756;51.354;15.754;2023-12-14T02:37:01;76.53;;;32.23;;
13374;SDS011;6756;51.354;15.754;2023-12-14T02:41:02;66.47;;;26.70;;
13374;SDS011;6756;51.354;15.754;2023-12-14T02:45:03;65.73;;;27.50;;
13374;SDS011;6756;51.354;15.754;2023-12-14T02:49:04;56.03;;;24.77;;
13374;SDS011;6756;51.354;15.754;2023-12-14T02:53:05;60.60;;;25.20;;
13374;SDS011;6756;51.354;15.754;2023-12-14T02:57:08;68.47;;;25.23;;
13374;SDS011;6756;51.354;15.754;2023-12-14T03:01:09;52.50;;;22.73;;
13374;SDS011;6756;51.354;15.754;2023-12-14T03:05:10;58.63;;;25.07;;
13374;SDS011;6756;51.354;15.754;2023-12-14T03:09:11;48.27;;;22.73;;
13374;SDS011;6756;51.354;15.754;2023-12-14T03:13:11;64.23;;;26.27;;
13374;SDS011;6756;51.354;15.754;2023-12-14T03:17:12;70.47;;;26.53;;
13374;SDS011;6756;51.354;15.754;2023-12-14T03:21:13;60.07;;;26.37;;
13374;SDS011;6756;51.354;15.754;2023-12-14T03:25:13;63.20;;;26.30;;
13374;SDS011;6756;51.354;15.754;2023-12-14T03:29:14;59.10;;;26.93;;
13374;SDS011;6756;51.354;15.754;2023-12-14T03:33:15;64.37;;;26.73;;
13374;SDS011;6756;51.354;15.754;2023-12-14T03:37:16;64.10;;;27.87;;
13374;SDS011;6756;51.354;15.754;2023-12-14T03:41:20;65.57;;;28.10;;
13374;SDS011;6756;51.354;15.754;2023-12-14T03:45:20;63.70;;;26.93;;
13374;SDS011;6756;51.354;15.754;2023-12-14T03:49:21;68.43;;;28.00;;
13374;SDS011;6756;51.354;15.754;2023-12-14T03:53:22;59.23;;;28.03;;
13374;SDS011;6756;51.354;15.754;2023-12-14T03:57:23;58.43;;;29.03;;
13374;SDS011;6756;51.354;15.754;2023-12-14T04:01:23;56.40;;;27.77;;
13374;SDS011;6756;51.354;15.754;2023-12-14T04:05:24;55.57;;;29.17;;
13374;SDS011;6756;51.354;15.754;2023-12-14T04:09:25;56.13;;;27.73;;
13374;SDS011;6756;51.354;15.754;2023-12-14T04:13:25;53.27;;;25.83;;
13374;SDS011;6756;51.354;15.754;2023-12-14T04:17:27;55.77;;;28.30;;
13374;SDS011;6756;51.354;15.754;2023-12-14T04:21:28;45.03;;;24.47;;
13374;SDS011;6756;51.354;15.754;2023-12-14T04:25:29;53.50;;;27.77;;
13374;SDS011;6756;51.354;15.754;2023-12-14T04:29:29;53.40;;;27.60;;
13374;SDS011;6756;51.354;15.754;2023-12-14T04:33:30;49.53;;;25.50;;
13374;SDS011;6756;51.354;15.754;2023-12-14T04:37:32;56.23;;;28.37;;
13374;SDS011;6756;51.354;15.754;2023-12-14T04:41:32;60.23;;;30.27;;
13374;SDS011;6756;51.354;15.754;2023-12-14T04:45:33;61.73;;;31.73;;
13374;SDS011;6756;51.354;15.754;2023-12-14T04:49:34;73.27;;;35.23;;
13374;SDS011;6756;51.354;15.754;2023-12-14T04:53:35;73.97;;;35.97;;
13374;SDS011;6756;51.354;15.754;2023-12-14T04:57:35;75.27;;;36.37;;
13374;SDS011;6756;51.354;15.754;2023-12-14T05:01:36;85.03;;;40.73;;
13374;SDS011;6756;51.354;15.754;2023-12-14T05:05:37;85.73;;;42.40;;
13374;SDS011;6756;51.354;15.754;2023-12-14T05:09:38;88.97;;;46.70;;
13374;SDS011;6756;51.354;15.754;2023-12-14T05:13:39;92.67;;;48.70;;
13374;SDS011;6756;51.354;15.754;2023-12-14T05:17:40;80.13;;;40.37;;
13374;SDS011;6756;51.354;15.754;2023-12-14T05:21:41;75.13;;;38.20;;
13374;SDS011;6756;51.354;15.754;2023-12-14T05:25:42;80.67;;;39.53;;
13374;SDS011;6756;51.354;15.754;2023-12-14T05:29:42;81.23;;;40.87;;
13374;SDS011;6756;51.354;15.754;2023-12-14T05:33:43;84.10;;;39.90;;
13374;SDS011;6756;51.354;15.754;2023-12-14T05:37:44;82.67;;;42.07;;
13374;SDS011;6756;51.354;15.754;2023-12-14T05:41:45;80.53;;;40.33;;
13374;SDS011;6756;51.354;15.754;2023-12-14T05:45:46;78.57;;;40.33;;
13374;SDS011;6756;51.354;15.754;2023-12-14T05:49:46;90.60;;;41.77;;
13374;SDS011;6756;51.354;15.754;2023-12-14T05:53:47;95.70;;;37.40;;
13374;SDS011;6756;51.354;15.754;2023-12-14T05:57:48;72.30;;;33.47;;
13374;SDS011;6756;51.354;15.754;2023-12-14T06:01:49;130.93;;;49.07;;
13374;SDS011;6756;51.354;15.754;2023-12-14T06:05:50;85.00;;;36.30;;
13374;SDS011;6756;51.354;15.754;2023-12-14T06:09:50;109.17;;;41.47;;
13374;SDS011;6756;51.354;15.754;2023-12-14T06:13:51;121.77;;;45.17;;
13374;SDS011;6756;51.354;15.754;2023-12-14T06:17:52;72.47;;;34.30;;
13374;SDS011;6756;51.354;15.754;2023-12-14T06:21:52;73.43;;;33.23;;
13374;SDS011;6756;51.354;15.754;2023-12-14T06:25:53;94.83;;;41.50;;
13374;SDS011;6756;51.354;15.754;2023-12-14T06:29:54;93.20;;;45.73;;
13374;SDS011;6756;51.354;15.754;2023-12-14T06:33:55;106.67;;;46.37;;
13374;SDS011;6756;51.354;15.754;2023-12-14T06:37:55;167.70;;;62.20;;
13374;SDS011;6756;51.354;15.754;2023-12-14T06:41:56;177.37;;;66.30;;
13374;SDS011;6756;51.354;15.754;2023-12-14T06:45:57;183.60;;;65.67;;
13374;SDS011;6756;51.354;15.754;2023-12-14T06:49:58;125.87;;;47.13;;
13374;SDS011;6756;51.354;15.754;2023-12-14T06:53:58;64.13;;;28.53;;
13374;SDS011;6756;51.354;15.754;2023-12-14T06:58:00;75.93;;;31.20;;
13374;SDS011;6756;51.354;15.754;2023-12-14T07:02:01;97.80;;;45.40;;
13374;SDS011;6756;51.354;15.754;2023-12-14T07:10:59;76.97;;;37.37;;
13374;SDS011;6756;51.354;15.754;2023-12-14T07:15:00;83.07;;;36.43;;
13374;SDS011;6756;51.354;15.754;2023-12-14T07:19:00;88.43;;;39.33;;
13374;SDS011;6756;51.354;15.754;2023-12-14T07:23:01;86.90;;;36.30;;
13374;SDS011;6756;51.354;15.754;2023-12-14T07:27:02;106.53;;;47.30;;
13374;SDS011;6756;51.354;15.754;2023-12-14T07:31:03;97.53;;;42.37;;
13374;SDS011;6756;51.354;15.754;2023-12-14T07:35:05;111.30;;;49.30;;
13374;SDS011;6756;51.354;15.754;2023-12-14T07:39:06;85.23;;;37.77;;
13374;SDS011;6756;51.354;15.754;2023-12-14T07:43:09;80.63;;;36.00;;
13374;SDS011;6756;51.354;15.754;2023-12-14T07:47:09;102.47;;;49.90;;
13374;SDS011;6756;51.354;15.754;2023-12-14T07:51:10;116.10;;;59.97;;
13374;SDS011;6756;51.354;15.754;2023-12-14T07:55:14;87.97;;;43.03;;
13374;SDS011;6756;51.354;15.754;2023-12-14T07:59:15;62.97;;;28.30;;
13374;SDS011;6756;51.354;15.754;2023-12-14T08:03:16;60.00;;;27.03;;
13374;SDS011;6756;51.354;15.754;2023-12-14T08:07:16;70.47;;;35.03;;
13374;SDS011;6756;51.354;15.754;2023-12-14T08:11:17;82.50;;;38.90;;
13374;SDS011;6756;51.354;15.754;2023-12-14T08:15:17;86.07;;;44.30;;
13374;SDS011;6756;51.354;15.754;2023-12-14T08:19:18;64.30;;;32.87;;
13374;SDS011;6756;51.354;15.754;2023-12-14T08:23:19;66.00;;;27.47;;
13374;SDS011;6756;51.354;15.754;2023-12-14T08:27:20;63.67;;;29.33;;
13374;SDS011;6756;51.354;15.754;2023-12-14T08:31:20;57.17;;;29.10;;
13374;SDS011;6756;51.354;15.754;2023-12-14T08:35:21;53.77;;;25.97;;
13374;SDS011;6756;51.354;15.754;2023-12-14T08:39:22;57.40;;;27.40;;
13374;SDS011;6756;51.354;15.754;2023-12-14T08:43:23;47.37;;;23.57;;
13374;SDS011;6756;51.354;15.754;2023-12-14T08:47:24;46.50;;;25.17;;
13374;SDS011;6756;51.354;15.754;2023-12-14T08:51:24;59.67;;;31.43;;
13374;SDS011;6756;51.354;15.754;2023-12-14T08:55:27;51.10;;;25.37;;
13374;SDS011;6756;51.354;15.754;2023-12-14T08:59:28;38.93;;;20.57;;
13374;SDS011;6756;51.354;15.754;2023-12-14T09:03:29;40.70;;;21.53;;
13374;SDS011;6756;51.354;15.754;2023-12-14T09:07:30;34.23;;;19.63;;
13374;SDS011;6756;51.354;15.754;2023-12-14T09:11:31;38.03;;;20.67;;
13374;SDS011;6756;51.354;15.754;2023-12-14T09:15:32;34.50;;;20.13;;
13374;SDS011;6756;51.354;15.754;2023-12-14T09:19:33;28.40;;;18.07;;
13374;SDS011;6756;51.354;15.754;2023-12-14T09:23:34;32.20;;;19.43;;
13374;SDS011;6756;51.354;15.754;2023-12-14T09:27:35;23.83;;;15.13;;
13374;SDS011;6756;51.354;15.754;2023-12-14T09:31:36;59.40;;;37.37;;
13374;SDS011;6756;51.354;15.754;2023-12-14T09:35:36;50.90;;;32.87;;
13374;SDS011;6756;51.354;15.754;2023-12-14T09:39:37;34.93;;;25.23;;
13374;SDS011;6756;51.354;15.754;2023-12-14T09:43:38;35.97;;;24.47;;
13374;SDS011;6756;51.354;15.754;2023-12-14T09:47:39;21.33;;;12.67;;
13374;SDS011;6756;51.354;15.754;2023-12-14T09:51:41;27.23;;;17.57;;
13374;SDS011;6756;51.354;15.754;2023-12-14T09:55:42;26.50;;;16.07;;
13374;SDS011;6756;51.354;15.754;2023-12-14T09:59:50;22.87;;;13.20;;
13374;SDS011;6756;51.354;15.754;2023-12-14T10:04:11;22.23;;;15.00;;
13374;SDS011;6756;51.354;15.754;2023-12-14T10:08:13;17.27;;;10.07;;
13374;SDS011;6756;51.354;15.754;2023-12-14T10:12:13;19.93;;;12.67;;
13374;SDS011;6756;51.354;15.754;2023-12-14T10:16:26;16.20;;;10.33;;
13374;SDS011;6756;51.354;15.754;2023-12-14T10:20:29;17.37;;;10.77;;
13374;SDS011;6756;51.354;15.754;2023-12-14T10:24:30;21.63;;;15.00;;
13374;SDS011;6756;51.354;15.754;2023-12-14T10:28:33;30.53;;;18.37;;
13374;SDS011;6756;51.354;15.754;2023-12-14T10:32:34;36.77;;;19.80;;
13374;SDS011;6756;51.354;15.754;2023-12-14T10:36:34;27.63;;;17.27;;
13374;SDS011;6756;51.354;15.754;2023-12-14T10:40:36;23.00;;;14.67;;
13374;SDS011;6756;51.354;15.754;2023-12-14T10:44:41;29.80;;;18.27;;
13374;SDS011;6756;51.354;15.754;2023-12-14T10:48:43;22.57;;;16.30;;
13374;SDS011;6756;51.354;15.754;2023-12-14T10:52:45;16.50;;;11.57;;
13374;SDS011;6756;51.354;15.754;2023-12-14T10:56:46;20.00;;;12.87;;
13374;SDS011;6756;51.354;15.754;2023-12-14T11:00:59;15.63;;;10.87;;
13374;SDS011;6756;51.354;15.754;2023-12-14T11:05:03;20.53;;;12.03;;
13374;SDS011;6756;51.354;15.754;2023-12-14T11:09:09;21.10;;;12.77;;
13374;SDS011;6756;51.354;15.754;2023-12-14T11:13:14;20.37;;;14.37;;
13374;SDS011;6756;51.354;15.754;2023-12-14T11:17:17;19.07;;;11.87;;
13374;SDS011;6756;51.354;15.754;2023-12-14T11:21:18;19.20;;;12.60;;
13374;SDS011;6756;51.354;15.754;2023-12-14T11:25:23;15.73;;;11.07;;
13374;SDS011;6756;51.354;15.754;2023-12-14T11:29:24;20.07;;;11.70;;
13374;SDS011;6756;51.354;15.754;2023-12-14T11:33:25;15.73;;;11.10;;
13374;SDS011;6756;51.354;15.754;2023-12-14T11:37:28;19.20;;;13.50;;
13374;SDS011;6756;51.354;15.754;2023-12-14T11:41:29;15.60;;;11.23;;
13374;SDS011;6756;51.354;15.754;2023-12-14T11:45:31;16.70;;;12.23;;
13374;SDS011;6756;51.354;15.754;2023-12-14T11:49:32;22.33;;;16.20;;
13374;SDS011;6756;51.354;15.754;2023-12-14T11:53:33;21.20;;;15.50;;
13374;SDS011;6756;51.354;15.754;2023-12-14T11:57:38;18.27;;;13.97;;
13374;SDS011;6756;51.354;15.754;2023-12-14T12:01:39;19.43;;;14.10;;
13374;SDS011;6756;51.354;15.754;2023-12-14T12:05:53;24.97;;;17.63;;
13374;SDS011;6756;51.354;15.754;2023-12-14T12:09:53;14.77;;;10.03;;
13374;SDS011;6756;51.354;15.754;2023-12-14T12:13:55;16.10;;;11.20;;
13374;SDS011;6756;51.354;15.754;2023-12-14T12:17:57;12.33;;;9.03;;
13374;SDS011;6756;51.354;15.754;2023-12-14T12:21:58;8.60;;;7.07;;
13374;SDS011;6756;51.354;15.754;2023-12-14T12:26:01;10.30;;;7.07;;
13374;SDS011;6756;51.354;15.754;2023-12-14T12:30:05;9.00;;;7.53;;
13374;SDS011;6756;51.354;15.754;2023-12-14T12:34:06;8.20;;;6.83;;
13374;SDS011;6756;51.354;15.754;2023-12-14T12:38:07;10.77;;;7.30;;
13374;SDS011;6756;51.354;15.754;2023-12-14T12:42:08;9.40;;;7.03;;
13374;SDS011;6756;51.354;15.754;2023-12-14T12:46:09;9.80;;;6.57;;
13374;SDS011;6756;51.354;15.754;2023-12-14T12:50:10;8.27;;;6.50;;
13374;SDS011;6756;51.354;15.754;2023-12-14T12:54:11;10.60;;;6.87;;
13374;SDS011;6756;51.354;15.754;2023-12-14T12:58:12;10.47;;;7.23;;
13374;SDS011;6756;51.354;15.754;2023-12-14T13:02:14;10.87;;;7.70;;
13374;SDS011;6756;51.354;15.754;2023-12-14T13:06:15;11.50;;;8.27;;
13374;SDS011;6756;51.354;15.754;2023-12-14T13:10:16;10.50;;;8.10;;
13374;SDS011;6756;51.354;15.754;2023-12-14T13:14:19;11.87;;;7.37;;
13374;SDS011;6756;51.354;15.754;2023-12-14T13:18:19;11.07;;;6.90;;
13374;SDS011;6756;51.354;15.754;2023-12-14T13:22:20;10.33;;;7.70;;
13374;SDS011;6756;51.354;15.754;2023-12-14T13:26:21;10.03;;;7.43;;
13374;SDS011;6756;51.354;15.754;2023-12-14T13:30:21;8.97;;;6.80;;
13374;SDS011;6756;51.354;15.754;2023-12-14T13:34:22;8.63;;;6.70;;
13374;SDS011;6756;51.354;15.754;2023-12-14T13:38:23;9.37;;;6.93;;
13374;SDS011;6756;51.354;15.754;2023-12-14T13:42:24;10.13;;;7.03;;
13374;SDS011;6756;51.354;15.754;2023-12-14T13:46:25;8.03;;;6.20;;
13374;SDS011;6756;51.354;15.754;2023-12-14T13:50:26;9.33;;;7.10;;
13374;SDS011;6756;51.354;15.754;2023-12-14T13:54:27;8.77;;;6.17;;
13374;SDS011;6756;51.354;15.754;2023-12-14T13:58:28;9.00;;;6.80;;
13374;SDS011;6756;51.354;15.754;2023-12-14T14:02:29;9.83;;;6.60;;
13374;SDS011;6756;51.354;15.754;2023-12-14T14:06:29;11.20;;;7.47;;
13374;SDS011;6756;51.354;15.754;2023-12-14T14:10:30;9.20;;;7.27;;
13374;SDS011;6756;51.354;15.754;2023-12-14T14:14:31;8.90;;;6.53;;
13374;SDS011;6756;51.354;15.754;2023-12-14T14:18:32;10.20;;;7.70;;
13374;SDS011;6756;51.354;15.754;2023-12-14T14:22:33;9.70;;;6.50;;
13374;SDS011;6756;51.354;15.754;2023-12-14T14:26:34;11.23;;;6.67;;
13374;SDS011;6756;51.354;15.754;2023-12-14T14:30:34;9.73;;;7.53;;
13374;SDS011;6756;51.354;15.754;2023-12-14T14:34:35;8.87;;;6.90;;
13374;SDS011;6756;51.354;15.754;2023-12-14T14:38:36;13.40;;;9.93;;
13374;SDS011;6756;51.354;15.754;2023-12-14T14:42:37;13.70;;;9.40;;
13374;SDS011;6756;51.354;15.754;2023-12-14T14:46:38;11.63;;;8.90;;
13374;SDS011;6756;51.354;15.754;2023-12-14T14:50:39;11.23;;;8.80;;
13374;SDS011;6756;51.354;15.754;2023-12-14T14:54:39;13.53;;;9.47;;
13374;SDS011;6756;51.354;15.754;2023-12-14T14:58:40;11.87;;;8.70;;
13374;SDS011;6756;51.354;15.754;2023-12-14T15:02:41;17.67;;;11.90;;
13374;SDS011;6756;51.354;15.754;2023-12-14T15:06:42;12.83;;;9.30;;
13374;SDS011;6756;51.354;15.754;2023-12-14T15:10:42;13.97;;;9.90;;
13374;SDS011;6756;51.354;15.754;2023-12-14T15:14:43;14.77;;;9.97;;
13374;SDS011;6756;51.354;15.754;2023-12-14T15:18:44;16.73;;;11.30;;
13374;SDS011;6756;51.354;15.754;2023-12-14T15:22:45;15.40;;;10.00;;
13374;SDS011;6756;51.354;15.754;2023-12-14T15:26:46;13.50;;;10.23;;
13374;SDS011;6756;51.354;15.754;2023-12-14T15:30:48;11.97;;;10.10;;
13374;SDS011;6756;51.354;15.754;2023-12-14T15:34:49;14.23;;;10.43;;
13374;SDS011;6756;51.354;15.754;2023-12-14T15:38:52;15.77;;;10.90;;
13374;SDS011;6756;51.354;15.754;2023-12-14T15:42:52;14.50;;;10.10;;
13374;SDS011;6756;51.354;15.754;2023-12-14T15:46:55;17.07;;;12.17;;
13374;SDS011;6756;51.354;15.754;2023-12-14T15:50:56;16.13;;;11.37;;
13374;SDS011;6756;51.354;15.754;2023-12-14T15:54:57;18.00;;;11.27;;
13374;SDS011;6756;51.354;15.754;2023-12-14T15:59:00;15.83;;;11.67;;
13374;SDS011;6756;51.354;15.754;2023-12-14T16:03:01;14.73;;;10.37;;
13374;SDS011;6756;51.354;15.754;2023-12-14T16:07:01;21.27;;;14.07;;
13374;SDS011;6756;51.354;15.754;2023-12-14T16:11:03;18.27;;;12.20;;
13374;SDS011;6756;51.354;15.754;2023-12-14T16:15:04;18.70;;;12.13;;
13374;SDS011;6756;51.354;15.754;2023-12-14T16:19:06;17.83;;;11.57;;
13374;SDS011;6756;51.354;15.754;2023-12-14T16:23:06;19.03;;;12.10;;
13374;SDS011;6756;51.354;15.754;2023-12-14T16:27:07;19.20;;;11.87;;
13374;SDS011;6756;51.354;15.754;2023-12-14T16:31:08;21.57;;;14.00;;
13374;SDS011;6756;51.354;15.754;2023-12-14T16:35:09;21.00;;;13.27;;
13374;SDS011;6756;51.354;15.754;2023-12-14T16:39:10;21.20;;;14.37;;
13374;SDS011;6756;51.354;15.754;2023-12-14T16:43:11;25.37;;;15.60;;
13374;SDS011;6756;51.354;15.754;2023-12-14T16:47:16;28.90;;;17.03;;
13374;SDS011;6756;51.354;15.754;2023-12-14T16:51:19;32.87;;;18.60;;
13374;SDS011;6756;51.354;15.754;2023-12-14T16:55:20;30.53;;;17.17;;
13374;SDS011;6756;51.354;15.754;2023-12-14T16:59:21;36.97;;;20.03;;
13374;SDS011;6756;51.354;15.754;2023-12-14T17:03:22;36.20;;;20.10;;
13374;SDS011;6756;51.354;15.754;2023-12-14T17:07:23;35.73;;;20.00;;
13374;SDS011;6756;51.354;15.754;2023-12-14T17:11:24;41.07;;;22.67;;
13374;SDS011;6756;51.354;15.754;2023-12-14T17:15:24;52.73;;;22.93;;
13374;SDS011;6756;51.354;15.754;2023-12-14T17:19:25;49.23;;;22.57;;
13374;SDS011;6756;51.354;15.754;2023-12-14T17:23:26;44.33;;;22.47;;
13374;SDS011;6756;51.354;15.754;2023-12-14T17:27:27;56.00;;;24.23;;
13374;SDS011;6756;51.354;15.754;2023-12-14T17:31:29;66.43;;;26.60;;
13374;SDS011;6756;51.354;15.754;2023-12-14T17:35:29;70.53;;;30.80;;
13374;SDS011;6756;51.354;15.754;2023-12-14T17:39:30;49.73;;;25.57;;
13374;SDS011;6756;51.354;15.754;2023-12-14T17:43:32;61.80;;;25.97;;
13374;SDS011;6756;51.354;15.754;2023-12-14T17:47:34;53.33;;;24.60;;
13374;SDS011;6756;51.354;15.754;2023-12-14T17:51:38;58.43;;;26.87;;
13374;SDS011;6756;51.354;15.754;2023-12-14T17:55:40;81.93;;;32.83;;
13374;SDS011;6756;51.354;15.754;2023-12-14T17:59:41;68.60;;;33.57;;
13374;SDS011;6756;51.354;15.754;2023-12-14T18:03:43;59.33;;;29.50;;
13374;SDS011;6756;51.354;15.754;2023-12-14T18:07:44;56.10;;;27.60;;
13374;SDS011;6756;51.354;15.754;2023-12-14T18:11:45;53.07;;;26.77;;
13374;SDS011;6756;51.354;15.754;2023-12-14T18:15:46;56.47;;;29.13;;
13374;SDS011;6756;51.354;15.754;2023-12-14T18:19:47;54.87;;;29.23;;
13374;SDS011;6756;51.354;15.754;2023-12-14T18:23:48;51.90;;;26.70;;
13374;SDS011;6756;51.354;15.754;2023-12-14T18:27:49;60.67;;;30.93;;
13374;SDS011;6756;51.354;15.754;2023-12-14T18:31:55;52.07;;;28.20;;
13374;SDS011;6756;51.354;15.754;2023-12-14T18:35:55;54.43;;;29.00;;
13374;SDS011;6756;51.354;15.754;2023-12-14T18:39:56;51.83;;;27.37;;
13374;SDS011;6756;51.354;15.754;2023-12-14T18:43:58;60.63;;;30.93;;
13374;SDS011;6756;51.354;15.754;2023-12-14T18:47:58;53.93;;;27.13;;
13374;SDS011;6756;51.354;15.754;2023-12-14T18:51:59;47.03;;;26.50;;
13374;SDS011;6756;51.354;15.754;2023-12-14T18:56:00;58.57;;;29.60;;
13374;SDS011;6756;51.354;15.754;2023-12-14T19:00:02;48.20;;;27.90;;
13374;SDS011;6756;51.354;15.754;2023-12-14T19:04:03;51.80;;;29.10;;
13374;SDS011;6756;51.354;15.754;2023-12-14T19:08:04;53.13;;;27.80;;
13374;SDS011;6756;51.354;15.754;2023-12-14T19:12:05;55.90;;;31.10;;
13374;SDS011;6756;51.354;15.754;2023-12-14T19:16:06;44.27;;;26.70;;
13374;SDS011;6756;51.354;15.754;2023-12-14T19:20:12;46.73;;;28.17;;
13374;SDS011;6756;51.354;15.754;2023-12-14T19:24:13;63.83;;;35.23;;
13374;SDS011;6756;51.354;15.754;2023-12-14T19:28:14;72.77;;;35.27;;
13374;SDS011;6756;51.354;15.754;2023-12-14T19:32:15;60.63;;;34.77;;
13374;SDS011;6756;51.354;15.754;2023-12-14T19:36:16;41.33;;;25.90;;
13374;SDS011;6756;51.354;15.754;2023-12-14T19:40:17;38.80;;;24.87;;
13374;SDS011;6756;51.354;15.754;2023-12-14T19:44:18;35.33;;;22.73;;
13374;SDS011;6756;51.354;15.754;2023-12-14T19:48:19;35.47;;;22.23;;
13374;SDS011;6756;51.354;15.754;2023-12-14T19:52:20;35.90;;;22.67;;
13374;SDS011;6756;51.354;15.754;2023-12-14T19:56:21;32.57;;;21.13;;
13374;SDS011;6756;51.354;15.754;2023-12-14T20:00:22;34.17;;;22.40;;
13374;SDS011;6756;51.354;15.754;2023-12-14T20:04:22;36.33;;;21.87;;
13374;SDS011;6756;51.354;15.754;2023-12-14T20:08:23;32.23;;;21.13;;
13374;SDS011;6756;51.354;15.754;2023-12-14T20:12:24;35.77;;;21.63;;
13374;SDS011;6756;51.354;15.754;2023-12-14T20:16:25;31.23;;;19.27;;
13374;SDS011;6756;51.354;15.754;2023-12-14T20:20:25;27.40;;;17.43;;
13374;SDS011;6756;51.354;15.754;2023-12-14T20:24:27;28.23;;;18.70;;
13374;SDS011;6756;51.354;15.754;2023-12-14T20:28:27;29.53;;;18.33;;
13374;SDS011;6756;51.354;15.754;2023-12-14T20:32:28;29.43;;;18.97;;
13374;SDS011;6756;51.354;15.754;2023-12-14T20:36:29;29.27;;;18.37;;
13374;SDS011;6756;51.354;15.754;2023-12-14T20:40:33;30.63;;;19.17;;
13374;SDS011;6756;51.354;15.754;2023-12-14T20:44:34;24.87;;;17.67;;
13374;SDS011;6756;51.354;15.754;2023-12-14T20:48:35;24.53;;;16.50;;
13374;SDS011;6756;51.354;15.754;2023-12-14T20:52:39;22.93;;;13.70;;
13374;SDS011;6756;51.354;15.754;2023-12-14T20:56:43;22.67;;;14.73;;
13374;SDS011;6756;51.354;15.754;2023-12-14T21:00:43;22.33;;;14.67;;
13374;SDS011;6756;51.354;15.754;2023-12-14T21:04:44;22.73;;;14.33;;
13374;SDS011;6756;51.354;15.754;2023-12-14T21:08:45;20.13;;;13.07;;
13374;SDS011;6756;51.354;15.754;2023-12-14T21:12:46;24.00;;;16.57;;
13374;SDS011;6756;51.354;15.754;2023-12-14T21:16:47;25.03;;;15.60;;
13374;SDS011;6756;51.354;15.754;2023-12-14T21:20:50;27.97;;;18.43;;
13374;SDS011;6756;51.354;15.754;2023-12-14T21:24:51;25.60;;;15.73;;
13374;SDS011;6756;51.354;15.754;2023-12-14T21:29:00;24.40;;;14.23;;
13374;SDS011;6756;51.354;15.754;2023-12-14T21:33:02;21.70;;;13.50;;
13374;SDS011;6756;51.354;15.754;2023-12-14T21:37:03;19.40;;;12.90;;
13374;SDS011;6756;51.354;15.754;2023-12-14T21:41:04;18.77;;;13.30;;
13374;SDS011;6756;51.354;15.754;2023-12-14T21:45:04;20.77;;;14.07;;
13374;SDS011;6756;51.354;15.754;2023-12-14T21:49:06;25.20;;;15.90;;
13374;SDS011;6756;51.354;15.754;2023-12-14T21:53:06;34.97;;;21.27;;
13374;SDS011;6756;51.354;15.754;2023-12-14T21:57:07;36.40;;;21.30;;
13374;SDS011;6756;51.354;15.754;2023-12-14T22:01:08;41.27;;;24.00;;
13374;SDS011;6756;51.354;15.754;2023-12-14T22:05:09;36.30;;;21.33;;
13374;SDS011;6756;51.354;15.754;2023-12-14T22:09:10;34.27;;;20.77;;
13374;SDS011;6756;51.354;15.754;2023-12-14T22:13:11;33.87;;;19.27;;
13374;SDS011;6756;51.354;15.754;2023-12-14T22:17:12;36.80;;;19.13;;
13374;SDS011;6756;51.354;15.754;2023-12-14T22:21:13;30.93;;;17.93;;
13374;SDS011;6756;51.354;15.754;2023-12-14T22:25:13;31.47;;;17.77;;
13374;SDS011;6756;51.354;15.754;2023-12-14T22:29:14;26.53;;;16.13;;
13374;SDS011;6756;51.354;15.754;2023-12-14T22:33:15;28.27;;;17.27;;
13374;SDS011;6756;51.354;15.754;2023-12-14T22:37:17;31.90;;;18.17;;
13374;SDS011;6756;51.354;15.754;2023-12-14T22:41:17;33.13;;;19.10;;
13374;SDS011;6756;51.354;15.754;2023-12-14T22:45:19;30.83;;;19.13;;
13374;SDS011;6756;51.354;15.754;2023-12-14T22:49:19;31.37;;;18.03;;
13374;SDS011;6756;51.354;15.754;2023-12-14T22:53:20;28.47;;;16.50;;
13374;SDS011;6756;51.354;15.754;2023-12-14T22:57:21;24.30;;;14.90;;
13374;SDS011;6756;51.354;15.754;2023-12-14T23:05:26;27.90;;;15.87;;
13374;SDS011;6756;51.354;15.754;2023-12-14T23:09:27;22.90;;;14.80;;
13374;SDS011;6756;51.354;15.754;2023-12-14T23:13:27;23.30;;;16.43;;
13374;SDS011;6756;51.354;15.754;2023-12-14T23:17:28;24.90;;;15.07;;
13374;SDS011;6756;51.354;15.754;2023-12-14T23:21:30;24.87;;;15.83;;
13374;SDS011;6756;51.354;15.754;2023-12-14T23:25:31;22.57;;;14.73;;
13374;SDS011;6756;51.354;15.754;2023-12-14T23:29:32;22.30;;;14.43;;
13374;SDS011;6756;51.354;15.754;2023-12-14T23:33:32;21.07;;;13.30;;
13374;SDS011;6756;51.354;15.754;2023-12-14T23:37:33;22.47;;;11.83;;
13374;SDS011;6756;51.354;15.754;2023-12-14T23:41:34;20.87;;;12.40;;
13374;SDS011;6756;51.354;15.754;2023-12-14T23:45:35;23.90;;;13.77;;